Time;durP1;ratioP1;P1;durP2;ratioP2;P2;SDS_P1;SDS_P2;PMS_P1;PMS_P2;Temp;Humidity;BMP_temperature;BMP_pressure;BME280_temperature;BME280_humidity;BME280_pressure;Samples;Min_cycle;Max_cycle;Signal;HPM_P1;HPM_P2
2024/02/01 00:02:00;;;;;;;16.80;4.88;;;;;;;9.77;100.00;102593.41;5290079;28;20404;-72
2024/02/01 00:04:30;;;;;;;16.92;5.75;;;;;;;9.75;100.00;102592.69;5295426;28;20023;-72
2024/02/01 00:07:01;;;;;;;17.75;6.13;;;;;;;9.82;100.00;102580.50;5294454;27;20023;-72
2024/02/01 00:09:31;;;;;;;12.63;5.20;;;;;;;9.78;100.00;102592.41;5289184;27;20031;-74
2024/02/01 00:12:02;;;;;;;23.60;6.68;;;;;;;9.88;100.00;102582.69;5300072;27;20031;-75
2024/02/01 00:14:33;;;;;;;23.85;6.18;;;;;;;9.92;100.00;102580.63;5290890;27;20027;-75
2024/02/01 00:17:03;;;;;;;19.10;6.55;;;;;;;9.85;100.00;102577.59;5295450;27;20357;-74
2024/02/01 00:19:35;;;;;;;15.60;6.03;;;;;;;9.94;100.00;102581.34;5289467;28;20023;-73
2024/02/01 00:22:06;;;;;;;22.20;8.45;;;;;;;9.94;100.00;102574.19;5294781;27;20023;-75
2024/02/01 00:24:36;;;;;;;20.33;6.20;;;;;;;9.89;100.00;102573.69;5291276;28;20043;-73
2024/02/01 00:27:07;;;;;;;18.65;6.78;;;;;;;9.79;100.00;102559.31;5292973;27;20011;-74
2024/02/01 00:29:37;;;;;;;17.70;5.43;;;;;;;9.80;100.00;102558.31;5298201;27;20114;-75
2024/02/01 00:32:08;;;;;;;18.70;5.82;;;;;;;9.80;100.00;102569.03;5298711;27;20035;-74
2024/02/01 00:34:39;;;;;;;18.65;6.20;;;;;;;9.82;100.00;102569.78;5294186;27;20447;-74
2024/02/01 00:37:10;;;;;;;15.32;7.50;;;;;;;9.79;100.00;102570.03;5296090;27;20019;-75
2024/02/01 00:39:41;;;;;;;16.17;6.53;;;;;;;9.74;100.00;102566.81;5291807;27;20026;-75
2024/02/01 00:42:11;;;;;;;18.13;7.45;;;;;;;9.72;100.00;102563.41;5295609;27;20019;-74
2024/02/01 00:44:42;;;;;;;12.73;6.70;;;;;;;9.68;100.00;102556.59;5300055;27;20481;-77
2024/02/01 00:47:12;;;;;;;22.10;6.82;;;;;;;9.65;100.00;102572.91;5291280;27;20027;-77
2024/02/01 00:49:43;;;;;;;19.95;7.57;;;;;;;9.60;100.00;102563.41;5298747;27;20015;-74
2024/02/01 00:52:13;;;;;;;19.33;7.45;;;;;;;9.66;100.00;102559.38;5290754;27;20028;-75
2024/02/01 00:54:44;;;;;;;18.90;7.78;;;;;;;9.64;100.00;102555.09;5292391;27;20016;-78
2024/02/01 00:57:14;;;;;;;18.60;7.50;;;;;;;9.54;100.00;102555.00;5292928;27;20024;-75
2024/02/01 00:59:45;;;;;;;21.23;8.32;;;;;;;9.59;100.00;102548.31;5285830;28;20011;-74
2024/02/01 01:02:15;;;;;;;18.55;7.47;;;;;;;9.57;100.00;102560.94;5292673;27;20023;-74
2024/02/01 01:04:46;;;;;;;27.17;8.00;;;;;;;9.49;100.00;102560.69;5299447;27;20015;-75
2024/02/01 01:07:16;;;;;;;19.17;7.88;;;;;;;9.51;100.00;102555.22;5301082;27;20041;-77
2024/02/01 01:09:52;;;;;;;18.15;7.85;;;;;;;9.52;100.00;102560.44;5285643;28;20037;-75
2024/02/01 01:12:22;;;;;;;17.08;7.85;;;;;;;9.50;100.00;102574.94;5286760;28;20058;-78
2024/02/01 01:14:53;;;;;;;18.85;7.28;;;;;;;9.52;100.00;102564.94;5286466;28;20035;-75
2024/02/01 01:17:23;;;;;;;20.63;8.38;;;;;;;9.44;100.00;102559.31;5295269;27;20027;-75
2024/02/01 01:19:55;;;;;;;17.92;7.88;;;;;;;9.46;100.00;102562.75;5294798;27;20029;-75
2024/02/01 01:22:25;;;;;;;19.23;8.38;;;;;;;9.45;100.00;102561.91;5288488;27;20443;-75
2024/02/01 01:24:56;;;;;;;20.60;7.68;;;;;;;9.53;100.00;102558.63;5293870;27;20019;-74
2024/02/01 01:27:26;;;;;;;18.10;7.68;;;;;;;9.48;100.00;102558.97;5288158;27;20527;-74
2024/02/01 01:29:56;;;;;;;22.17;8.60;;;;;;;9.52;100.00;102564.94;5294513;27;20019;-76
2024/02/01 01:32:27;;;;;;;25.92;9.00;;;;;;;9.51;100.00;102561.44;5293266;27;20024;-75
2024/02/01 01:35:00;;;;;;;20.02;8.45;;;;;;;9.47;100.00;102553.75;5299807;27;20155;-75
2024/02/01 01:37:32;;;;;;;19.70;8.80;;;;;;;9.47;100.00;102554.59;5291619;27;20019;-75
2024/02/01 01:40:04;;;;;;;19.13;8.60;;;;;;;9.42;100.00;102550.56;5300140;27;20043;-78
2024/02/01 01:42:34;;;;;;;18.27;8.93;;;;;;;9.45;100.00;102542.28;5295482;27;20019;-75
2024/02/01 01:45:05;;;;;;;21.80;9.75;;;;;;;9.47;100.00;102554.59;5297395;27;20025;-75
2024/02/01 01:47:36;;;;;;;28.50;9.32;;;;;;;9.43;100.00;102553.09;5296120;27;20034;-75
2024/02/01 01:50:07;;;;;;;29.15;9.40;;;;;;;9.44;100.00;102551.28;5295975;27;20102;-74
2024/02/01 01:52:39;;;;;;;24.88;10.10;;;;;;;9.49;100.00;102562.53;5290347;27;20393;-75
2024/02/01 01:55:11;;;;;;;21.95;9.98;;;;;;;9.49;100.00;102566.06;5296560;27;20023;-75
2024/02/01 01:57:43;;;;;;;20.70;10.60;;;;;;;9.49;100.00;102571.41;5294667;27;20069;-75
2024/02/01 02:00:15;;;;;;;26.80;10.30;;;;;;;9.49;100.00;102567.88;5299980;27;20058;-78
2024/02/01 02:02:46;;;;;;;24.83;10.75;;;;;;;9.50;100.00;102569.59;5290979;27;20024;-75
2024/02/01 02:05:16;;;;;;;28.40;10.25;;;;;;;9.46;100.00;102573.47;5290988;27;20030;-75
2024/02/01 02:07:47;;;;;;;22.33;11.27;;;;;;;9.53;100.00;102561.28;5298441;27;20358;-74
2024/02/01 02:10:18;;;;;;;19.60;10.10;;;;;;;9.53;100.00;102563.97;5297102;27;20026;-75
2024/02/01 02:12:49;;;;;;;24.70;10.73;;;;;;;9.53;100.00;102570.19;5287337;27;20051;-75
2024/02/01 02:15:21;;;;;;;25.17;10.93;;;;;;;9.52;100.00;102570.31;5293635;27;20020;-75
2024/02/01 02:17:52;;;;;;;27.27;11.00;;;;;;;9.57;100.00;102562.78;5296834;27;20716;-75
2024/02/01 02:20:26;;;;;;;22.65;10.27;;;;;;;9.58;100.00;102569.84;5297917;27;20106;-75
2024/02/01 02:22:57;;;;;;;18.95;10.52;;;;;;;9.53;100.00;102574.69;5292863;27;20067;-76
2024/02/01 02:25:27;;;;;;;23.48;10.98;;;;;;;9.54;100.00;102571.06;5295236;27;20414;-76
2024/02/01 02:27:58;;;;;;;27.70;11.50;;;;;;;9.55;100.00;102573.63;5297478;27;20022;-77
2024/02/01 02:30:28;;;;;;;22.27;10.73;;;;;;;9.56;100.00;102578.00;5296406;27;20019;-78
2024/02/01 02:32:59;;;;;;;21.20;10.48;;;;;;;9.59;100.00;102579.59;5297752;27;20476;-75
2024/02/01 02:35:29;;;;;;;19.90;10.23;;;;;;;9.60;100.00;102581.31;5291836;27;20035;-75
2024/02/01 02:38:00;;;;;;;21.92;11.07;;;;;;;9.64;100.00;102584.59;5297241;27;20019;-77
2024/02/01 02:40:30;;;;;;;20.40;9.77;;;;;;;9.63;100.00;102580.19;5289107;27;20118;-75
2024/02/01 02:43:01;;;;;;;29.95;11.50;;;;;;;9.63;100.00;102580.19;5293957;27;20047;-74
2024/02/01 02:45:31;;;;;;;23.50;10.18;;;;;;;9.65;100.00;102584.50;5295995;27;20016;-75
2024/02/01 02:48:05;;;;;;;18.88;10.18;;;;;;;9.68;100.00;102594.09;5293917;27;20411;-75
2024/02/01 02:50:36;;;;;;;18.33;10.02;;;;;;;9.70;100.00;102592.19;5293475;27;20070;-75
2024/02/01 02:53:06;;;;;;;20.48;10.02;;;;;;;9.72;100.00;102590.22;5293974;27;20051;-78
2024/02/01 02:55:37;;;;;;;22.73;10.68;;;;;;;9.74;100.00;102591.81;5294182;27;20024;-79
2024/02/01 02:58:08;;;;;;;21.02;11.02;;;;;;;9.74;100.00;102597.19;5284542;27;20567;-74
2024/02/01 03:00:38;;;;;;;18.45;10.02;;;;;;;9.70;100.00;102598.38;5293987;27;20022;-76
2024/02/01 03:03:09;;;;;;;18.00;10.32;;;;;;;9.77;100.00;102604.97;5298582;27;20110;-75
2024/02/01 03:05:39;;;;;;;20.08;10.73;;;;;;;9.83;100.00;102604.50;5289219;27;20020;-75
2024/02/01 03:08:13;;;;;;;22.10;10.70;;;;;;;9.83;100.00;102601.81;5297370;27;20023;-74
2024/02/01 03:10:45;;;;;;;15.80;10.00;;;;;;;9.83;100.00;102600.97;5287436;27;20366;-74
2024/02/01 03:13:17;;;;;;;21.83;10.77;;;;;;;9.83;100.00;102607.16;5297113;27;20023;-75
2024/02/01 03:15:57;;;;;;;21.40;11.07;;;;;;;9.81;100.00;102611.81;5284921;28;20486;-75
2024/02/01 03:18:30;;;;;;;24.13;11.93;;;;;;;9.80;100.00;102607.44;5293315;27;20076;-75
2024/02/01 03:21:01;;;;;;;21.27;11.85;;;;;;;9.81;100.00;102601.09;5291833;27;20019;-77
2024/02/01 03:23:33;;;;;;;25.25;12.32;;;;;;;9.87;100.00;102610.47;5290156;27;20040;-75
2024/02/01 03:26:04;;;;;;;18.08;10.52;;;;;;;9.80;100.00;102596.69;5291387;27;20098;-75
2024/02/01 03:28:34;;;;;;;21.08;11.05;;;;;;;9.82;100.00;102610.84;5289086;27;20015;-75
2024/02/01 03:31:05;;;;;;;18.75;10.45;;;;;;;9.87;100.00;102610.47;5297233;28;20031;-76
2024/02/01 03:33:39;;;;;;;20.95;11.73;;;;;;;9.95;100.00;102601.84;5291584;27;20485;-75
2024/02/01 03:36:11;;;;;;;20.73;11.27;;;;;;;9.91;100.00;102606.59;5285145;28;20144;-75
2024/02/01 03:38:42;;;;;;;19.92;10.82;;;;;;;9.97;100.00;102606.09;5284315;28;20128;-75
2024/02/01 03:41:13;;;;;;;22.23;11.60;;;;;;;9.97;100.00;102606.09;5292546;27;20046;-74
2024/02/01 03:43:43;;;;;;;21.00;11.82;;;;;;;9.97;100.00;102599.91;5288119;28;20024;-75
2024/02/01 03:46:14;;;;;;;20.17;11.88;;;;;;;10.01;100.00;102596.84;5292779;27;20019;-76
2024/02/01 03:48:45;;;;;;;23.63;12.40;;;;;;;10.01;100.00;102610.25;5287805;28;20354;-74
2024/02/01 03:51:16;;;;;;;22.40;12.27;;;;;;;10.02;100.00;102611.97;5288839;28;20030;-78
2024/02/01 03:53:46;;;;;;;23.33;12.25;;;;;;;10.02;100.00;102620.00;5293691;28;20020;-74
2024/02/01 03:56:23;;;;;;;28.17;13.23;;;;;;;10.03;100.00;102623.53;5296595;27;20042;-74
2024/02/01 03:58:54;;;;;;;22.25;12.55;;;;;;;10.08;100.00;102624.88;5290123;27;20036;-75
2024/02/01 04:01:24;;;;;;;22.45;12.57;;;;;;;10.08;100.00;102619.53;5301019;27;20026;-74
2024/02/01 04:03:56;;;;;;;24.52;12.57;;;;;;;10.11;100.00;102627.34;5294353;27;20020;-74
2024/02/01 04:06:27;;;;;;;27.02;13.27;;;;;;;10.12;100.00;102631.72;5299582;27;20038;-74
2024/02/01 04:08:57;;;;;;;26.25;13.48;;;;;;;10.11;100.00;102642.59;5293941;27;20165;-75
2024/02/01 04:11:30;;;;;;;26.40;13.90;;;;;;;10.13;100.00;102654.03;5296785;27;20090;-75
2024/02/01 04:14:00;;;;;;;29.80;14.65;;;;;;;10.11;100.00;102659.53;5293358;27;20161;-74
2024/02/01 04:16:31;;;;;;;32.05;14.77;;;;;;;10.19;100.00;102658.06;5289569;27;20020;-74
2024/02/01 04:19:01;;;;;;;30.90;14.77;;;;;;;10.20;100.00;102671.38;5290408;27;20027;-75
2024/02/01 04:21:32;;;;;;;32.70;14.70;;;;;;;10.20;100.00;102671.38;5288520;27;20029;-76
2024/02/01 04:24:02;;;;;;;32.50;15.52;;;;;;;10.19;100.00;102674.16;5294685;27;20015;-75
2024/02/01 04:26:35;;;;;;;32.97;15.98;;;;;;;10.24;100.00;102680.03;5297436;27;20031;-74
2024/02/01 04:29:06;;;;;;;36.15;15.02;;;;;;;10.28;100.00;102681.53;5290360;27;20019;-76
2024/02/01 04:31:36;;;;;;;38.72;15.43;;;;;;;10.25;100.00;102677.25;5289762;27;20496;-74
2024/02/01 04:34:09;;;;;;;32.25;15.52;;;;;;;10.27;100.00;102679.81;5295351;27;20498;-75
2024/02/01 04:36:39;;;;;;;33.83;16.15;;;;;;;10.26;100.00;102686.16;5297628;27;20045;-74
2024/02/01 04:39:10;;;;;;;35.33;14.85;;;;;;;10.27;100.00;102687.88;5295008;27;20019;-75
2024/02/01 04:41:41;;;;;;;39.85;16.65;;;;;;;10.31;100.00;102692.03;5295580;27;20027;-78
2024/02/01 04:44:12;;;;;;;36.95;16.30;;;;;;;10.33;100.00;102698.13;5288449;27;20407;-75
2024/02/01 04:46:42;;;;;;;36.70;15.48;;;;;;;10.38;100.00;102709.34;5285249;28;20023;-77
2024/02/01 04:49:13;;;;;;;39.90;16.05;;;;;;;10.40;100.00;102709.25;5290674;27;20035;-75
2024/02/01 04:51:43;;;;;;;56.50;16.38;;;;;;;10.39;100.00;102721.78;5294907;27;20098;-77
2024/02/01 04:54:14;;;;;;;43.97;16.42;;;;;;;10.46;100.00;102733.75;5291697;27;20111;-74
2024/02/01 04:56:44;;;;;;;41.92;15.73;;;;;;;10.53;100.00;102724.22;5294926;27;20019;-75
2024/02/01 04:59:15;;;;;;;51.05;15.90;;;;;;;10.51;100.00;102739.63;5295820;27;20532;-75
2024/02/01 05:01:45;;;;;;;51.53;15.98;;;;;;;10.41;100.00;102737.78;5291321;27;20020;-75
2024/02/01 05:04:16;;;;;;;45.25;13.20;;;;;;;10.34;100.00;102750.78;5290932;27;20020;-74
2024/02/01 05:06:47;;;;;;;47.67;13.15;;;;;;;10.35;100.00;102755.22;5290716;27;20034;-74
2024/02/01 05:09:23;;;;;;;35.30;12.65;;;;;;;10.40;100.00;102757.53;5287052;28;20028;-74
2024/02/01 05:11:54;;;;;;;47.42;12.07;;;;;;;10.20;100.00;102767.09;5294381;27;20032;-75
2024/02/01 05:14:25;;;;;;;53.17;11.65;;;;;;;10.24;100.00;102773.94;5292074;27;20064;-74
2024/02/01 05:16:55;;;;;;;36.58;11.15;;;;;;;10.22;100.00;102776.72;5295613;27;20032;-75
2024/02/01 05:19:26;;;;;;;39.05;10.57;;;;;;;10.20;100.00;102788.53;5296055;27;20023;-74
2024/02/01 05:21:56;;;;;;;28.48;7.18;;;;;;;9.98;100.00;102789.28;5287817;27;20031;-74
2024/02/01 05:24:28;;;;;;;33.55;7.18;;;;;;;9.88;100.00;102780.22;5285541;27;20473;-74
2024/02/01 05:26:58;;;;;;;33.65;6.53;;;;;;;9.86;100.00;102786.56;5287272;27;20031;-74
2024/02/01 05:29:29;;;;;;;26.73;5.35;;;;;;;9.76;100.00;102788.22;5283249;27;20027;-76
2024/02/01 05:32:00;;;;;;;35.92;6.53;;;;;;;9.72;100.00;102791.22;5295739;27;20384;-77
2024/02/01 05:34:30;;;;;;;26.52;6.22;;;;;;;9.69;100.00;102802.16;5288603;27;20042;-76
2024/02/01 05:37:01;;;;;;;23.27;6.32;;;;;;;9.63;100.00;102799.94;5290286;27;20024;-75
2024/02/01 05:39:31;;;;;;;26.45;5.55;;;;;;;9.55;100.00;102806.72;5288635;27;20062;-75
2024/02/01 05:42:12;;;;;;;18.23;4.95;;;;;;;9.54;100.00;102796.13;5295432;27;20032;-75
2024/02/01 05:44:44;;;;;;;23.73;4.85;;;;;;;9.56;100.00;102800.41;5292741;27;20027;-75
2024/02/01 05:47:15;;;;;;;20.23;4.32;;;;;;;9.44;100.00;102809.34;5293528;27;20042;-75
2024/02/01 05:49:47;;;;;;;30.77;4.68;;;;;;;9.38;100.00;102819.63;5284595;28;20110;-75
2024/02/01 05:52:19;;;;;;;23.13;4.15;;;;;;;9.27;100.00;102815.91;5280361;27;20031;-76
2024/02/01 05:54:49;;;;;;;23.50;4.03;;;;;;;9.28;100.00;102822.97;5293255;27;20773;-75
2024/02/01 05:57:20;;;;;;;20.50;3.70;;;;;;;9.30;100.00;102823.72;5293935;27;20031;-76
2024/02/01 05:59:50;;;;;;;16.40;3.67;;;;;;;9.26;100.00;102821.38;5281175;27;20114;-75
2024/02/01 06:02:21;;;;;;;15.68;3.95;;;;;;;9.21;100.00;102831.56;5287391;27;20038;-76
2024/02/01 06:04:52;;;;;;;19.75;3.53;;;;;;;9.04;100.00;102835.44;5290139;27;20039;-75
2024/02/01 06:07:22;;;;;;;13.73;3.15;;;;;;;9.05;100.00;102843.34;5294303;27;20023;-75
2024/02/01 06:09:53;;;;;;;23.55;5.03;;;;;;;8.95;100.00;102833.41;5293222;27;20055;-75
2024/02/01 06:12:24;;;;;;;15.52;3.15;;;;;;;8.89;100.00;102834.69;5294643;27;20024;-75
2024/02/01 06:14:55;;;;;;;18.42;3.30;;;;;;;8.71;100.00;102839.47;5292588;27;20024;-75
2024/02/01 06:17:26;;;;;;;23.80;3.28;;;;;;;8.63;100.00;102836.47;5288779;27;20088;-75
2024/02/01 06:19:56;;;;;;;17.60;2.80;;;;;;;8.52;100.00;102855.91;5290106;27;20481;-75
2024/02/01 06:22:27;;;;;;;16.35;4.40;;;;;;;8.43;100.00;102859.22;5293212;27;20022;-75
2024/02/01 06:24:58;;;;;;;22.75;3.65;;;;;;;8.29;100.00;102860.13;5275697;27;20028;-75
2024/02/01 06:27:28;;;;;;;15.65;3.45;;;;;;;8.25;100.00;102863.97;5285228;27;20438;-76
2024/02/01 06:30:00;;;;;;;24.42;3.42;;;;;;;8.07;100.00;102881.22;5280007;27;20028;-74
2024/02/01 06:32:30;;;;;;;19.75;3.20;;;;;;;8.00;100.00;102879.91;5293231;27;20053;-78
2024/02/01 06:35:16;;;;;;;24.40;3.47;;;;;;;7.98;100.00;102887.16;5291571;27;20040;-75
2024/02/01 06:38:04;;;;;;;;;;;;;;;7.91;100.00;102892.03;5280081;27;20024;-77
2024/02/01 06:46:22;;;;;;;17.30;3.22;;;;;;;7.90;100.00;102918.88;5286608;27;20032;-74
2024/02/01 06:49:11;;;;;;;26.13;3.67;;;;;;;7.90;100.00;102921.56;5287278;27;20028;-75
2024/02/01 06:51:43;;;;;;;33.00;4.28;;;;;;;7.88;100.00;102924.34;5283196;27;20120;-75
2024/02/01 06:54:28;;;;;;;16.08;4.18;;;;;;;7.91;100.00;102934.81;5287691;27;20019;-75
2024/02/01 06:57:13;;;;;;;25.08;4.65;;;;;;;7.94;100.00;102931.94;5287382;27;20032;-77
2024/02/01 07:00:06;;;;;;;15.02;3.85;;;;;;;7.88;100.00;102936.81;5279476;28;20027;-75
2024/02/01 07:02:35;;;;;;;22.67;3.33;;;;;;;7.91;100.00;102940.16;5289721;27;20026;-75
2024/02/01 07:05:21;;;;;;;24.45;2.92;;;;;;;7.82;100.00;102954.09;5275438;27;20481;-75
2024/02/01 07:08:01;;;;;;;27.65;3.22;;;;;;;7.69;100.00;102961.19;5285785;27;20058;-74
2024/02/01 07:10:43;;;;;;;31.35;3.25;;;;;;;7.63;100.00;102969.56;5285997;28;20035;-74
2024/02/01 07:13:44;;;;;;;17.80;2.95;;;;;;;7.59;100.00;102971.59;5290993;27;20027;-74
2024/02/01 07:16:21;;;;;;;18.02;3.17;;;;;;;7.55;100.00;102972.72;5288521;27;20080;-73
2024/02/01 07:19:10;;;;;;;15.88;3.30;;;;;;;7.40;100.00;102987.88;5283874;28;20030;-73
2024/02/01 07:24:39;;;;;;;23.58;3.92;;;;;;;7.38;100.00;102996.91;5284952;28;20400;-74
2024/02/01 07:58:32;;;;;;;25.50;4.43;;;;;;;7.08;100.00;103050.31;5289001;27;20046;-74
2024/02/01 08:01:13;;;;;;;25.15;3.90;;;;;;;7.23;100.00;103057.47;5290286;27;20023;-74
2024/02/01 08:04:01;;;;;;;23.08;3.25;;;;;;;7.39;100.00;103060.06;5290007;27;20026;-74
2024/02/01 08:09:21;;;;;;;18.63;3.45;;;;;;;8.01;100.00;103074.94;5294399;27;20387;-74
2024/02/01 08:11:52;;;;;;;17.95;3.10;;;;;;;8.21;100.00;103065.66;5282123;27;20404;-74
2024/02/01 08:14:22;;;;;;;19.42;2.90;;;;;;;8.42;100.00;103066.16;5295182;27;20027;-73
2024/02/01 08:16:53;;;;;;;21.23;3.00;;;;;;;8.65;100.00;103069.16;5291071;27;20024;-73
2024/02/01 08:19:24;;;;;;;20.45;3.50;;;;;;;8.98;100.00;103087.50;5291515;27;20023;-73
2024/02/01 08:22:00;;;;;;;25.42;3.15;;;;;;;9.20;100.00;103079.75;5287907;28;20035;-73
2024/02/01 08:24:31;;;;;;;22.58;3.78;;;;;;;9.44;100.00;103093.34;5291891;27;20028;-73
2024/02/01 08:27:04;;;;;;;24.60;3.33;;;;;;;9.56;100.00;103080.91;5290331;27;20084;-74
2024/02/01 08:29:36;;;;;;;24.75;3.67;;;;;;;9.74;100.00;103087.69;5285704;28;20024;-74
2024/02/01 08:32:06;;;;;;;27.45;4.22;;;;;;;10.20;100.00;103099.69;5286081;27;20055;-74
2024/02/01 08:34:38;;;;;;;28.92;4.53;;;;;;;10.26;100.00;103094.78;5285276;28;20425;-74
2024/02/01 08:37:09;;;;;;;28.83;4.00;;;;;;;10.52;100.00;103106.31;5289813;27;20418;-74
2024/02/01 08:39:45;;;;;;;20.45;4.45;;;;;;;11.00;100.00;103105.53;5287299;28;20027;-74
2024/02/01 08:42:16;;;;;;;23.65;3.58;;;;;;;11.12;100.00;103104.59;5289966;27;20074;-74
2024/02/01 08:44:47;;;;;;;26.30;4.78;;;;;;;11.22;100.00;103116.38;5292164;27;20593;-74
2024/02/01 08:47:18;;;;;;;28.02;5.20;;;;;;;11.36;100.00;103134.16;5291439;27;20027;-74
2024/02/01 08:49:49;;;;;;;19.83;3.80;;;;;;;11.64;100.00;103139.13;5289125;27;20618;-72
2024/02/01 08:52:20;;;;;;;23.67;4.47;;;;;;;11.61;100.00;103125.06;5291162;27;20476;-72
2024/02/01 08:54:50;;;;;;;22.25;3.60;;;;;;;11.41;100.00;103121.22;5291691;27;20031;-71
2024/02/01 08:57:21;;;;;;;21.00;3.60;;;;;;;11.28;100.00;103109.66;5289290;27;20430;-74
2024/02/01 08:59:52;;;;;;;25.73;4.88;;;;;;;11.71;100.00;103111.78;5288770;27;20063;-74
2024/02/01 09:02:22;;;;;;;31.02;4.63;;;;;;;12.08;100.00;103121.41;5291666;27;20019;-74
2024/02/01 09:04:53;;;;;;;25.27;4.65;;;;;;;12.54;100.00;103133.03;5289663;27;20400;-74
2024/02/01 09:07:26;;;;;;;23.60;4.75;;;;;;;12.78;100.00;103146.34;5290443;27;20020;-74
2024/02/01 09:09:56;;;;;;;23.08;5.10;;;;;;;13.01;100.00;103144.47;5289653;27;20531;-74
2024/02/01 09:12:28;;;;;;;32.63;5.50;;;;;;;12.78;100.00;103144.50;5290377;27;20023;-74
2024/02/01 09:14:58;;;;;;;26.70;4.97;;;;;;;12.87;100.00;103151.84;5285983;28;20028;-74
2024/02/01 09:17:29;;;;;;;22.48;4.35;;;;;;;12.90;100.00;103159.69;5283300;27;20088;-74
2024/02/01 09:19:59;;;;;;;36.67;6.10;;;;;;;12.85;100.00;103161.91;5281888;28;20028;-74
2024/02/01 09:22:30;;;;;;;40.65;5.93;;;;;;;12.44;100.00;103171.44;5282431;27;20015;-74
2024/02/01 09:25:00;;;;;;;26.08;4.45;;;;;;;12.68;100.00;103167.78;5277961;27;20069;-74
2024/02/01 09:27:30;;;;;;;28.05;5.82;;;;;;;12.87;100.00;103176.09;5283274;27;20713;-74
2024/02/01 09:30:01;;;;;;;32.58;6.05;;;;;;;12.52;100.00;103170.84;5286964;27;20048;-74
2024/02/01 09:32:32;;;;;;;41.83;6.10;;;;;;;12.37;100.00;103169.38;5290120;27;20370;-74
2024/02/01 09:35:03;;;;;;;35.80;5.05;;;;;;;12.54;100.00;103179.66;5288055;27;20028;-74
2024/02/01 09:37:34;;;;;;;24.58;4.72;;;;;;;12.85;100.00;103186.16;5286525;27;20023;-74
2024/02/01 09:40:10;;;;;;;28.60;5.15;;;;;;;13.03;100.00;103199.09;5285543;27;20034;-74
2024/02/01 09:42:41;;;;;;;34.33;5.38;;;;;;;12.98;100.00;103185.13;5286912;27;20024;-74
2024/02/01 09:45:12;;;;;;;27.45;4.70;;;;;;;12.97;100.00;103189.66;5289809;27;20039;-74
2024/02/01 09:47:43;;;;;;;34.47;6.35;;;;;;;12.64;100.00;103194.09;5287332;27;20465;-74
2024/02/01 09:50:15;;;;;;;24.20;6.57;;;;;;;12.71;100.00;103199.88;5288978;27;20027;-74
2024/02/01 09:52:49;;;;;;;27.98;5.55;;;;;;;12.95;100.00;103200.56;5286427;28;20485;-73
2024/02/01 09:55:20;;;;;;;24.52;4.82;;;;;;;13.09;100.00;103207.50;5286071;27;20035;-74
2024/02/01 09:57:53;;;;;;;24.75;4.72;;;;;;;13.05;100.00;103200.69;5286465;28;20031;-74
2024/02/01 10:00:26;;;;;;;19.85;4.72;;;;;;;12.85;100.00;103205.00;5282659;28;20023;-73
2024/02/01 10:02:56;;;;;;;30.23;4.72;;;;;;;12.76;100.00;103212.97;5289422;27;20019;-74
2024/02/01 10:05:28;;;;;;;19.48;4.25;;;;;;;12.63;100.00;103219.31;5287100;27;20042;-74
2024/02/01 10:07:59;;;;;;;25.38;4.43;;;;;;;12.46;100.00;103213.56;5289124;27;20024;-73
2024/02/01 10:10:30;;;;;;;28.50;5.10;;;;;;;12.44;100.00;103221.75;5289620;27;20035;-74
2024/02/01 10:13:00;;;;;;;32.88;4.35;;;;;;;12.13;100.00;103217.91;5286272;28;20027;-74
2024/02/01 10:15:32;;;;;;;28.63;5.25;;;;;;;11.74;100.00;103216.41;5282180;28;20072;-74
2024/02/01 10:18:06;;;;;;;24.23;3.92;;;;;;;11.26;100.00;103221.78;5286631;27;20480;-74
2024/02/01 10:20:39;;;;;;;32.60;5.70;;;;;;;11.10;100.00;103224.75;5284799;27;20036;-74
2024/02/01 10:23:13;;;;;;;27.80;4.68;;;;;;;10.92;100.00;103235.00;5283724;28;20069;-74
2024/02/01 10:25:46;;;;;;;37.65;9.30;;;;;;;10.87;100.00;103226.41;5286282;27;20396;-74
2024/02/01 10:28:18;;;;;;;19.98;4.63;;;;;;;10.77;100.00;103223.53;5288504;27;20019;-74
2024/02/01 10:30:50;;;;;;;29.35;4.50;;;;;;;10.66;100.00;103220.75;5286220;27;20092;-74
2024/02/01 10:33:25;;;;;;;29.08;3.60;;;;;;;10.62;100.00;103220.09;5290582;27;20032;-74
2024/02/01 10:35:59;;;;;;;29.15;4.55;;;;;;;10.60;100.00;103222.03;5282669;27;20034;-74
2024/02/01 10:38:32;;;;;;;23.30;3.92;;;;;;;10.63;100.00;103224.50;5288662;27;20027;-74
2024/02/01 10:41:16;;;;;;;16.98;3.35;;;;;;;10.71;100.00;103233.84;5286565;27;20132;-73
2024/02/01 10:43:48;;;;;;;24.20;3.53;;;;;;;10.68;100.00;103244.78;5286161;27;20076;-74
2024/02/01 10:46:35;;;;;;;23.35;3.80;;;;;;;10.74;100.00;103241.66;5285253;28;20284;-74
2024/02/01 10:49:17;;;;;;;22.67;3.72;;;;;;;10.89;100.00;103230.72;5283093;28;20404;-73
2024/02/01 10:51:50;;;;;;;22.48;4.63;;;;;;;10.94;100.00;103230.34;5286261;27;20062;-74
2024/02/01 10:54:21;;;;;;;24.17;3.88;;;;;;;10.87;100.00;103224.56;5287307;27;20149;-74
2024/02/01 10:56:53;;;;;;;33.92;4.22;;;;;;;10.78;100.00;103225.22;5285723;28;20568;-74
2024/02/01 10:59:24;;;;;;;31.75;4.13;;;;;;;10.71;100.00;103232.03;5284016;28;20035;-73
2024/02/01 11:01:55;;;;;;;19.52;3.70;;;;;;;10.74;100.00;103230.94;5286662;27;20034;-74
2024/02/01 11:04:33;;;;;;;20.30;4.10;;;;;;;10.82;100.00;103237.47;5285921;28;20024;-74
2024/02/01 11:07:04;;;;;;;27.35;4.18;;;;;;;10.75;100.00;103236.22;5269767;27;20436;-73
2024/02/01 11:09:43;;;;;;;17.55;4.05;;;;;;;10.79;100.00;103235.03;5280994;27;20051;-75
2024/02/01 11:12:13;;;;;;;47.45;17.98;;;;;;;10.87;100.00;103223.72;5289296;27;20031;-75
2024/02/01 11:14:48;;;;;;;38.88;13.90;;;;;;;10.98;100.00;103231.84;5285294;28;20027;-74
2024/02/01 11:17:21;;;;;;;27.23;5.85;;;;;;;11.02;100.00;103227.13;5286326;28;20366;-74
2024/02/01 11:19:52;;;;;;;22.73;4.03;;;;;;;11.03;100.00;103223.47;5284310;28;20023;-75
2024/02/01 11:22:23;;;;;;;25.08;4.35;;;;;;;10.99;100.00;103224.66;5284440;28;20023;-75
2024/02/01 11:25:07;;;;;;;27.23;3.58;;;;;;;10.98;100.00;103220.25;5284036;28;20544;-74
2024/02/01 11:27:37;;;;;;;20.60;3.88;;;;;;;10.97;100.00;103230.16;5284710;28;20050;-74
2024/02/01 11:30:21;;;;;;;30.55;5.30;;;;;;;10.98;100.00;103226.47;5284209;28;20050;-74
2024/02/01 11:32:52;;;;;;;26.63;3.95;;;;;;;10.94;100.00;103230.34;5284731;28;20434;-74
2024/02/01 11:35:23;;;;;;;25.73;4.20;;;;;;;10.93;100.00;103227.78;5285430;28;20020;-74
2024/02/01 11:37:55;;;;;;;30.10;4.55;;;;;;;10.98;100.00;103215.75;5286184;28;20031;-74
2024/02/01 11:40:26;;;;;;;31.55;7.07;;;;;;;11.06;100.00;103223.25;5284066;28;20035;-74
2024/02/01 11:42:59;;;;;;;26.67;4.65;;;;;;;11.15;100.00;103215.38;5284749;28;20020;-74
2024/02/01 11:45:30;;;;;;;47.70;15.60;;;;;;;11.26;100.00;103209.22;5285580;27;20051;-74
2024/02/01 11:48:01;;;;;;;23.52;4.22;;;;;;;11.26;100.00;103219.09;5285843;28;20059;-74
2024/02/01 11:50:31;;;;;;;24.63;4.85;;;;;;;11.28;100.00;103211.78;5285182;28;20067;-74
2024/02/01 11:53:05;;;;;;;22.30;7.85;;;;;;;11.29;100.00;103229.59;5285668;28;20077;-74
2024/02/01 11:55:39;;;;;;;25.33;6.25;;;;;;;11.30;100.00;103216.09;5286449;27;20485;-75
2024/02/01 11:58:12;;;;;;;20.75;3.63;;;;;;;11.31;100.00;103215.09;5285490;28;20073;-74
2024/02/01 12:00:44;;;;;;;16.67;3.60;;;;;;;11.32;100.00;103213.28;5283730;28;20035;-75
2024/02/01 12:03:15;;;;;;;15.02;3.30;;;;;;;11.32;100.00;103210.59;5286121;28;20031;-74
2024/02/01 12:05:45;;;;;;;33.70;4.00;;;;;;;11.26;100.00;103213.72;5285752;27;20027;-75
2024/02/01 12:08:16;;;;;;;24.92;3.83;;;;;;;11.27;100.00;103204.69;5284467;28;20499;-74
2024/02/01 12:10:48;;;;;;;25.25;3.55;;;;;;;11.33;100.00;103209.59;5283758;27;20028;-75
2024/02/01 12:13:19;;;;;;;23.73;3.78;;;;;;;11.35;100.00;103211.22;5285685;28;20055;-75
2024/02/01 12:15:52;;;;;;;33.45;3.85;;;;;;;11.26;100.00;103219.09;5285804;28;20122;-75
2024/02/01 12:18:23;;;;;;;21.55;4.13;;;;;;;11.18;100.00;103213.44;5282013;28;20034;-75